createdAt,value
2018-08-24T00:01:34.967Z,22.50
2018-08-24T00:04:07.259Z,22.40
2018-08-24T00:06:36.102Z,22.40
2018-08-24T00:09:09.083Z,22.50
2018-08-24T00:11:38.079Z,22.40
2018-08-24T00:14:09.925Z,22.40
2018-08-24T00:16:43.927Z,22.20
2018-08-24T00:19:13.813Z,22.30
2018-08-24T00:21:42.358Z,22.10
2018-08-24T00:24:12.928Z,22.20
2018-08-24T00:26:41.188Z,22.50
2018-08-24T00:29:09.767Z,22.30
2018-08-24T00:31:38.698Z,22.00
2018-08-24T00:34:07.186Z,21.40
2018-08-24T00:36:35.463Z,21.10
2018-08-24T00:39:05.480Z,21.10
2018-08-24T00:41:33.761Z,20.90
2018-08-24T00:44:02.051Z,20.80
2018-08-24T00:46:30.333Z,20.80
2018-08-24T00:48:58.602Z,20.90
2018-08-24T00:51:26.862Z,20.70
2018-08-24T00:53:55.180Z,20.40
2018-08-24T00:56:23.407Z,20.50
2018-08-24T00:58:51.674Z,20.60
2018-08-24T01:01:19.977Z,20.20
2018-08-24T01:03:48.255Z,20.10
2018-08-24T01:06:20.825Z,19.90
2018-08-24T01:08:49.341Z,19.70
2018-08-24T01:11:17.648Z,19.70
2018-08-24T01:13:50.139Z,19.50
2018-08-24T01:16:24.183Z,19.40
2018-08-24T01:18:52.531Z,19.60
2018-08-24T01:21:20.995Z,19.60
2018-08-24T01:23:49.702Z,19.70
2018-08-24T01:26:22.011Z,19.90
2018-08-24T01:28:51.373Z,20.10
2018-08-24T01:31:19.847Z,20.20
2018-08-24T01:33:48.119Z,20.10
2018-08-24T01:36:16.703Z,20.00
2018-08-24T01:38:45.271Z,20.00
2018-08-24T01:41:13.706Z,19.80
2018-08-24T01:43:42.411Z,19.70
2018-08-24T01:46:15.807Z,19.80
2018-08-24T01:48:44.493Z,19.80
2018-08-24T01:51:14.443Z,19.80
2018-08-24T01:53:50.123Z,20.00
2018-08-24T01:56:20.105Z,20.00
2018-08-24T01:58:49.062Z,20.10
2018-08-24T02:01:17.516Z,20.00
2018-08-24T02:03:46.754Z,19.90
2018-08-24T02:06:17.483Z,19.70
2018-08-24T02:08:52.396Z,19.70
2018-08-24T02:11:26.033Z,19.80
2018-08-24T02:14:01.263Z,19.50
2018-08-24T02:16:32.544Z,19.40
2018-08-24T02:25:05.970Z,19.50
2018-08-24T02:28:06.963Z,19.70
2018-08-24T02:30:35.360Z,19.60
2018-08-24T02:33:04.078Z,19.30
2018-08-24T02:35:52.055Z,19.20
2018-08-24T02:38:38.219Z,19.30
2018-08-24T02:41:50.656Z,19.60
2018-08-24T02:44:18.986Z,19.50
2018-08-24T02:46:51.696Z,19.10
2018-08-24T02:52:19.637Z,19.10
2018-08-24T02:54:48.300Z,19.00
2018-08-24T02:58:27.300Z,19.00
2018-08-24T03:00:55.669Z,19.20
2018-08-24T03:03:25.069Z,19.00
2018-08-24T03:06:39.441Z,19.00
2018-08-24T03:09:18.391Z,18.90
2018-08-24T03:16:38.475Z,19.10
2018-08-24T03:19:27.649Z,18.80
2018-08-24T03:22:03.846Z,18.70
2018-08-24T03:24:36.936Z,18.90
2018-08-24T03:27:09.868Z,18.80
2018-08-24T03:29:56.653Z,18.70
2018-08-24T03:32:32.624Z,18.50
2018-08-24T03:35:32.214Z,18.70
2018-08-24T03:38:01.291Z,18.50
2018-08-24T03:40:29.844Z,18.40
2018-08-24T03:42:58.819Z,18.40
2018-08-24T03:45:27.122Z,18.50
2018-08-24T03:47:57.868Z,18.40
2018-08-24T03:50:26.300Z,18.20
2018-08-24T03:52:54.888Z,18.40
2018-08-24T03:55:23.193Z,18.60
2018-08-24T03:57:51.526Z,18.60
2018-08-24T04:00:20.016Z,18.60
2018-08-24T04:02:48.616Z,18.60
2018-08-24T04:05:17.823Z,18.60
2018-08-24T04:07:46.756Z,18.30
2018-08-24T04:10:15.440Z,18.40
2018-08-24T04:12:43.905Z,18.50
2018-08-24T04:15:12.271Z,18.10
2018-08-24T04:17:44.232Z,18.20
2018-08-24T04:20:13.635Z,18.40
2018-08-24T04:22:41.977Z,18.40
2018-08-24T04:25:11.090Z,18.40
2018-08-24T04:27:40.139Z,18.20
2018-08-24T04:30:09.275Z,18.30
2018-08-24T04:32:37.741Z,18.40
2018-08-24T04:35:06.564Z,18.60
2018-08-24T04:37:35.469Z,18.70
2018-08-24T04:40:04.597Z,18.80
2018-08-24T04:42:34.608Z,18.90
2018-08-24T04:45:08.353Z,18.90
2018-08-24T04:47:38.642Z,18.90
2018-08-24T04:50:07.057Z,18.90
2018-08-24T04:52:37.260Z,19.00
2018-08-24T04:55:07.596Z,18.90
2018-08-24T04:57:36.791Z,18.80
2018-08-24T05:00:05.364Z,18.80
2018-08-24T05:02:33.718Z,18.80
2018-08-24T05:05:02.035Z,18.70
2018-08-24T05:07:30.421Z,18.90
2018-08-24T05:10:04.881Z,18.70
2018-08-24T05:12:33.184Z,18.80
2018-08-24T05:15:01.499Z,18.80
2018-08-24T05:17:30.852Z,18.80
2018-08-24T05:19:59.662Z,18.70
2018-08-24T05:22:28.814Z,18.90
2018-08-24T05:24:57.507Z,18.90
2018-08-24T05:27:26.845Z,19.00
2018-08-24T05:29:55.548Z,19.00
2018-08-24T05:32:23.835Z,19.10
2018-08-24T05:34:52.111Z,19.30
2018-08-24T05:37:20.365Z,19.40
2018-08-24T05:39:48.690Z,19.30
2018-08-24T05:42:16.946Z,19.20
2018-08-24T05:44:45.214Z,19.30
2018-08-24T05:47:13.488Z,19.10
2018-08-24T05:49:41.740Z,19.10
2018-08-24T05:52:10.006Z,19.10
2018-08-24T05:54:38.263Z,19.20
2018-08-24T05:57:06.800Z,19.30
2018-08-24T05:59:35.075Z,19.30
2018-08-24T06:02:03.372Z,19.20
2018-08-24T06:04:31.675Z,19.00
2018-08-24T06:06:59.913Z,19.20
2018-08-24T06:09:28.170Z,19.50
2018-08-24T06:11:56.506Z,19.60
2018-08-24T06:14:24.752Z,19.50
2018-08-24T06:16:58.320Z,19.50
2018-08-24T06:19:26.582Z,19.40
2018-08-24T06:21:54.875Z,19.50
2018-08-24T06:24:23.217Z,19.90
2018-08-24T06:26:51.437Z,19.90
2018-08-24T06:29:19.722Z,19.60
2018-08-24T06:31:47.946Z,19.30
2018-08-24T06:34:16.237Z,19.40
2018-08-24T06:36:44.501Z,19.40
2018-08-24T06:39:14.026Z,19.30
2018-08-24T06:41:42.998Z,19.40
2018-08-24T06:44:11.218Z,19.60
2018-08-24T06:46:39.465Z,19.90
2018-08-24T06:49:07.753Z,19.80
2018-08-24T06:51:36.067Z,19.90
2018-08-24T06:54:04.445Z,20.00
2018-08-24T06:56:32.607Z,19.50
2018-08-24T06:59:00.858Z,19.70
2018-08-24T07:01:29.128Z,19.70
2018-08-24T07:03:57.376Z,19.50
2018-08-24T07:06:25.649Z,19.50
2018-08-24T07:08:54.012Z,19.50
2018-08-24T07:11:22.281Z,19.50
2018-08-24T07:13:50.696Z,19.60
2018-08-24T07:16:19.154Z,19.70
2018-08-24T07:18:47.483Z,19.60
2018-08-24T07:21:15.774Z,19.60
2018-08-24T07:23:44.025Z,19.50
2018-08-24T07:26:12.301Z,19.50
2018-08-24T07:28:40.802Z,19.60
2018-08-24T07:31:09.203Z,19.90
2018-08-24T07:33:37.494Z,20.10
2018-08-24T07:36:05.758Z,19.90
2018-08-24T07:38:34.079Z,19.60
2018-08-24T07:41:02.363Z,20.00
2018-08-24T07:43:30.638Z,19.90
2018-08-24T07:45:58.904Z,19.70
2018-08-24T07:48:27.214Z,19.70
2018-08-24T07:50:55.523Z,19.50
2018-08-24T07:53:23.786Z,19.70
2018-08-24T07:55:52.503Z,19.40
2018-08-24T07:58:20.760Z,19.80
2018-08-24T08:00:49.039Z,19.90
2018-08-24T08:03:17.326Z,19.90
2018-08-24T08:05:45.607Z,19.60
2018-08-24T08:08:13.861Z,19.60
2018-08-24T08:10:42.295Z,19.80
2018-08-24T08:13:11.741Z,19.80
2018-08-24T08:15:40.294Z,19.80
2018-08-24T08:18:08.686Z,19.70
2018-08-24T08:20:36.927Z,19.70
2018-08-24T08:23:05.364Z,19.40
2018-08-24T08:25:33.615Z,19.30
2018-08-24T08:28:01.883Z,19.20
2018-08-24T08:30:30.166Z,19.10
2018-08-24T08:32:58.451Z,19.30
2018-08-24T08:35:26.697Z,19.90
2018-08-24T08:37:54.962Z,19.90
2018-08-24T08:40:23.253Z,19.80
2018-08-24T08:42:51.542Z,20.00
2018-08-24T08:45:19.848Z,19.60
2018-08-24T08:47:48.328Z,19.40
2018-08-24T08:50:16.588Z,19.20
2018-08-24T08:52:44.849Z,19.40
2018-08-24T08:55:13.106Z,19.50
2018-08-24T08:57:41.374Z,19.60
2018-08-24T09:00:09.662Z,19.30
2018-08-24T09:02:37.904Z,19.60
2018-08-24T09:05:06.439Z,19.70
2018-08-24T09:07:34.784Z,19.90
2018-08-24T09:10:03.099Z,20.60
2018-08-24T09:12:31.343Z,20.50
2018-08-24T09:14:59.611Z,20.70
2018-08-24T09:17:33.431Z,20.10
2018-08-24T09:20:06.920Z,19.30
2018-08-24T09:22:40.612Z,18.60
2018-08-24T09:25:14.298Z,18.50
2018-08-24T09:28:47.308Z,18.30
2018-08-24T09:31:18.812Z,18.00
2018-08-24T09:33:47.206Z,18.00
2018-08-24T09:36:18.523Z,17.80
2018-08-24T09:38:47.059Z,17.90
2018-08-24T09:41:15.382Z,18.00
2018-08-24T09:43:48.949Z,18.50
2018-08-24T09:46:17.227Z,18.90
2018-08-24T09:48:50.806Z,19.40
2018-08-24T09:51:25.330Z,19.80
2018-08-24T09:53:59.076Z,19.30
2018-08-24T09:56:28.440Z,18.90
2018-08-24T09:58:57.036Z,18.80
2018-08-24T10:01:30.815Z,18.90
2018-08-24T10:04:04.434Z,19.00
2018-08-24T10:06:38.155Z,19.20
2018-08-24T10:09:09.345Z,19.20
2018-08-24T10:11:37.642Z,19.90
2018-08-24T10:14:06.275Z,19.80
2018-08-24T10:16:34.555Z,19.60
2018-08-24T10:19:03.106Z,19.40
2018-08-24T10:21:31.480Z,19.60
2018-08-24T10:23:59.874Z,19.80
2018-08-24T10:26:28.207Z,20.00
2018-08-24T10:28:56.491Z,20.50
2018-08-24T10:31:24.783Z,20.90
2018-08-24T10:33:53.230Z,21.10
2018-08-24T10:36:21.387Z,20.40
2018-08-24T10:38:49.702Z,20.10
2018-08-24T10:41:18.007Z,19.90
2018-08-24T10:43:46.267Z,20.10
2018-08-24T10:46:15.067Z,20.80
2018-08-24T10:48:43.370Z,21.80
2018-08-24T10:51:15.421Z,21.10
2018-08-24T10:53:46.185Z,20.80
2018-08-24T10:56:14.521Z,20.50
2018-08-24T10:58:42.768Z,20.70
2018-08-24T11:01:11.067Z,20.70
2018-08-24T11:03:39.447Z,20.40
2018-08-24T11:06:07.730Z,20.70
2018-08-24T11:08:37.765Z,20.60
2018-08-24T11:11:06.139Z,20.90
2018-08-24T11:13:34.415Z,21.40
2018-08-24T11:16:02.682Z,21.70
2018-08-24T11:18:30.938Z,21.40
2018-08-24T11:21:00.613Z,21.70
2018-08-24T11:23:28.881Z,21.60
2018-08-24T11:25:57.881Z,21.80
2018-08-24T11:28:26.367Z,21.80
2018-08-24T11:30:54.677Z,22.30
2018-08-24T11:33:22.986Z,22.40
2018-08-24T11:35:51.421Z,22.60
2018-08-24T11:38:19.880Z,22.90
2018-08-24T11:40:48.276Z,22.70
2018-08-24T11:43:16.575Z,22.30
2018-08-24T11:45:44.878Z,22.20
2018-08-24T11:48:13.245Z,22.30
2018-08-24T11:50:41.607Z,22.50
2018-08-24T11:53:09.859Z,22.10
2018-08-24T11:55:38.164Z,21.50
2018-08-24T11:58:06.464Z,22.00
2018-08-24T12:00:35.195Z,21.90
2018-08-24T12:03:04.377Z,21.80
2018-08-24T12:05:33.302Z,21.80
2018-08-24T12:08:01.991Z,22.00
2018-08-24T12:10:30.282Z,21.80
2018-08-24T12:12:58.955Z,22.00
2018-08-24T12:15:27.472Z,22.20
2018-08-24T12:17:56.326Z,22.10
2018-08-24T12:20:24.625Z,21.80
2018-08-24T12:22:53.010Z,22.20
2018-08-24T12:25:21.399Z,21.70
2018-08-24T12:27:49.734Z,21.90
2018-08-24T12:30:18.046Z,22.30
2018-08-24T12:32:46.334Z,22.60
2018-08-24T12:35:14.895Z,23.10
2018-08-24T12:37:43.199Z,22.60
2018-08-24T12:40:11.668Z,23.30
2018-08-24T12:42:40.040Z,23.70
2018-08-24T12:45:09.446Z,23.60
2018-08-24T12:47:38.497Z,23.40
2018-08-24T12:50:07.787Z,23.60
2018-08-24T12:52:38.671Z,24.00
2018-08-24T12:55:07.590Z,23.80
2018-08-24T12:57:36.401Z,23.70
2018-08-24T13:00:05.728Z,23.50
2018-08-24T13:02:44.161Z,24.40
2018-08-24T13:05:12.837Z,24.10
2018-08-24T13:07:42.962Z,23.50
2018-08-24T13:10:12.197Z,24.30
2018-08-24T13:13:20.261Z,24.90
2018-08-24T13:21:58.011Z,24.00
2018-08-24T13:24:30.643Z,24.80
2018-08-24T13:27:03.725Z,25.10
2018-08-24T13:29:38.821Z,25.40
2018-08-24T13:32:09.337Z,25.90
2018-08-24T13:34:40.599Z,25.20
2018-08-24T13:37:09.960Z,24.80
2018-08-24T13:39:38.535Z,24.30
2018-08-24T13:42:07.258Z,25.00
2018-08-24T13:47:11.143Z,25.70
2018-08-24T13:49:39.579Z,25.90
2018-08-24T13:52:09.594Z,26.10
2018-08-24T13:54:37.929Z,25.60
2018-08-24T13:57:07.947Z,25.30
2018-08-24T13:59:36.291Z,25.10
2018-08-24T14:02:04.579Z,25.00
2018-08-24T14:04:34.748Z,24.10
2018-08-24T14:07:03.023Z,24.30
2018-08-24T14:09:31.376Z,24.70
2018-08-24T14:11:59.627Z,24.40
2018-08-24T14:14:28.014Z,24.60
2018-08-24T14:16:56.450Z,24.00
2018-08-24T14:19:36.178Z,23.60
2018-08-24T14:22:06.423Z,23.70
2018-08-24T14:24:34.937Z,23.20
2018-08-24T14:27:03.282Z,23.60
2018-08-24T14:29:35.119Z,23.50
2018-08-24T14:32:04.891Z,23.60
2018-08-24T14:34:37.047Z,23.90
2018-08-24T14:37:06.459Z,22.90
2018-08-24T14:39:35.745Z,22.80
2018-08-24T14:42:05.021Z,23.20
2018-08-24T14:44:37.990Z,23.00
2018-08-24T14:47:08.160Z,23.10
2018-08-24T14:49:38.753Z,23.30
2018-08-24T14:52:18.070Z,23.70
2018-08-24T14:54:51.098Z,23.70
2018-08-24T14:57:22.648Z,23.90
2018-08-24T14:59:51.869Z,23.30
2018-08-24T15:02:20.206Z,22.80
2018-08-24T15:04:48.514Z,22.90
2018-08-24T15:07:16.783Z,23.30
2018-08-24T15:09:45.607Z,23.50
2018-08-24T15:12:13.908Z,23.90
2018-08-24T15:14:42.201Z,23.00
2018-08-24T15:17:10.506Z,22.90
2018-08-24T15:19:39.371Z,23.00
2018-08-24T15:22:10.630Z,23.10
2018-08-24T15:24:39.418Z,23.20
2018-08-24T15:27:08.415Z,23.70
2018-08-24T15:29:46.628Z,23.60
2018-08-24T15:32:21.709Z,23.70
2018-08-24T15:35:17.281Z,24.10
2018-08-24T15:37:47.438Z,23.90
2018-08-24T15:40:16.161Z,23.60
2018-08-24T15:42:58.353Z,23.10
2018-08-24T15:45:36.691Z,22.60
2018-08-24T15:48:29.058Z,22.40
2018-08-24T15:50:58.285Z,22.80
2018-08-24T15:53:45.138Z,23.10
2018-08-24T15:56:20.075Z,23.30
2018-08-24T15:59:06.245Z,22.90
2018-08-24T16:04:28.788Z,23.00
2018-08-24T16:07:30.750Z,22.60
2018-08-24T16:10:07.138Z,22.30
2018-08-24T16:12:41.815Z,21.90
2018-08-24T16:20:14.161Z,21.70
2018-08-24T16:22:57.354Z,21.50
2018-08-24T16:25:27.969Z,21.60
2018-08-24T16:27:57.252Z,21.80
2018-08-24T16:30:26.247Z,21.60
2018-08-24T16:32:56.993Z,21.50
2018-08-24T16:35:27.351Z,21.80
2018-08-24T16:37:56.377Z,22.30
2018-08-24T16:40:25.143Z,22.20
2018-08-24T16:42:54.143Z,21.60
2018-08-24T16:45:23.317Z,21.60
2018-08-24T16:47:52.772Z,21.20
2018-08-24T16:50:21.793Z,20.90
2018-08-24T16:52:55.627Z,21.30
2018-08-24T16:55:24.466Z,21.40
2018-08-24T16:57:53.835Z,21.20
2018-08-24T17:00:22.647Z,21.30
2018-08-24T17:02:51.676Z,21.00
2018-08-24T17:05:22.307Z,20.60
2018-08-24T17:07:52.347Z,20.90
2018-08-24T17:10:21.261Z,21.00
2018-08-24T17:12:50.259Z,20.70
2018-08-24T17:15:19.175Z,20.80
2018-08-24T17:17:48.253Z,21.10
2018-08-24T17:20:16.831Z,21.20
2018-08-24T17:22:45.861Z,20.90
2018-08-24T17:25:14.720Z,20.90
2018-08-24T17:27:43.736Z,21.00
2018-08-24T17:30:12.436Z,20.60
2018-08-24T17:32:41.285Z,20.50
2018-08-24T17:35:10.454Z,20.70
2018-08-24T17:37:39.221Z,21.00
2018-08-24T17:40:08.052Z,20.80
2018-08-24T17:42:37.601Z,20.90
2018-08-24T17:45:06.627Z,20.70
2018-08-24T17:47:35.303Z,20.30
2018-08-24T17:50:05.453Z,20.20
2018-08-24T17:52:34.295Z,20.60
2018-08-24T17:55:06.220Z,20.70
2018-08-24T17:57:54.556Z,20.50
2018-08-24T18:01:08.680Z,20.40
2018-08-24T18:03:46.843Z,20.10
2018-08-24T18:06:27.624Z,20.50
2018-08-24T18:09:03.772Z,20.70
2018-08-24T18:11:35.175Z,20.70
2018-08-24T18:14:23.798Z,20.60
2018-08-24T18:17:04.264Z,20.40
2018-08-24T18:19:37.693Z,20.50
2018-08-24T18:22:08.621Z,20.40
2018-08-24T18:24:39.697Z,20.10
2018-08-24T18:27:09.450Z,20.20
2018-08-24T18:29:38.201Z,20.70
2018-08-24T18:32:07.408Z,20.70
2018-08-24T18:34:37.277Z,20.40
2018-08-24T18:37:06.403Z,20.20
2018-08-24T18:39:35.053Z,20.30
2018-08-24T18:42:03.929Z,20.30
2018-08-24T18:44:32.849Z,20.10
2018-08-24T18:47:01.578Z,20.00
2018-08-24T18:49:30.215Z,20.10
2018-08-24T18:51:58.985Z,20.00
2018-08-24T18:54:27.704Z,20.00
2018-08-24T18:56:56.396Z,20.20
2018-08-24T18:59:25.430Z,20.10
2018-08-24T19:01:57.475Z,19.90
2018-08-24T19:04:26.312Z,19.80
2018-08-24T19:06:54.930Z,19.90
2018-08-24T19:09:23.707Z,20.10
2018-08-24T19:11:57.791Z,20.00
2018-08-24T19:14:26.559Z,20.10
2018-08-24T19:16:59.369Z,20.10
2018-08-24T19:19:33.386Z,20.00
2018-08-24T19:22:04.156Z,19.80
2018-08-24T19:24:33.309Z,19.90
2018-08-24T19:27:02.641Z,19.90
2018-08-24T19:29:37.566Z,20.10
2018-08-24T19:32:17.434Z,19.90
2018-08-24T19:34:54.664Z,20.00
2018-08-24T19:37:24.047Z,20.10
2018-08-24T19:39:57.974Z,19.90
2018-08-24T19:42:28.815Z,19.80
2018-08-24T19:45:03.928Z,19.90
2018-08-24T19:47:37.647Z,19.90
2018-08-24T19:50:06.224Z,20.00
2018-08-24T19:52:34.903Z,20.10
2018-08-24T19:55:10.917Z,20.00
2018-08-24T19:57:50.832Z,19.90
2018-08-24T20:00:19.469Z,19.70
2018-08-24T20:02:47.723Z,19.60
2018-08-24T20:05:16.254Z,19.60
2018-08-24T20:07:49.987Z,19.90
2018-08-24T20:10:19.498Z,19.70
2018-08-24T20:12:48.306Z,19.70
2018-08-24T20:15:22.059Z,19.70
2018-08-24T20:17:50.585Z,19.60
2018-08-24T20:20:18.883Z,19.70
2018-08-24T20:22:47.264Z,19.70
2018-08-24T20:25:15.511Z,19.80
2018-08-24T20:27:43.790Z,19.80
2018-08-24T20:30:15.180Z,19.90
2018-08-24T20:32:44.420Z,19.80
2018-08-24T20:35:13.049Z,19.50
2018-08-24T20:40:44.587Z,19.10
2018-08-24T20:43:13.427Z,19.30
2018-08-24T20:45:42.515Z,19.40
2018-08-24T20:48:10.976Z,19.40
2018-08-24T20:50:39.511Z,19.40
2018-08-24T20:53:07.959Z,19.40
2018-08-24T20:55:36.342Z,19.60
2018-08-24T20:58:04.705Z,19.40
2018-08-24T21:00:40.894Z,19.40
2018-08-24T21:03:09.198Z,19.40
2018-08-24T21:05:37.544Z,19.30
2018-08-24T21:08:06.576Z,19.50
2018-08-24T21:10:36.123Z,19.60
2018-08-24T21:13:04.375Z,19.50
2018-08-24T21:15:33.959Z,19.40
2018-08-24T21:18:02.359Z,19.50
2018-08-24T21:20:30.748Z,19.60
2018-08-24T21:22:59.082Z,19.30
2018-08-24T21:25:28.489Z,19.40
2018-08-24T21:27:56.764Z,19.40
2018-08-24T21:30:26.426Z,19.20
2018-08-24T21:32:54.798Z,19.20
2018-08-24T21:35:24.355Z,19.30
2018-08-24T21:37:52.689Z,19.20
2018-08-24T21:40:21.012Z,19.20
2018-08-24T21:42:49.282Z,19.10
2018-08-24T21:45:19.431Z,19.20
2018-08-24T21:47:48.181Z,18.90
2018-08-24T21:50:16.735Z,19.00
2018-08-24T21:52:45.234Z,19.10
2018-08-24T21:55:13.486Z,19.30
2018-08-24T21:57:41.779Z,19.40
2018-08-24T22:00:13.619Z,19.20
2018-08-24T22:02:42.010Z,19.00
2018-08-24T22:05:10.522Z,19.20
2018-08-24T22:07:38.829Z,19.20
2018-08-24T22:10:07.190Z,19.00
2018-08-24T22:12:35.787Z,19.00
2018-08-24T22:15:04.121Z,18.90
2018-08-24T22:17:32.404Z,19.00
2018-08-24T22:20:00.640Z,19.00
2018-08-24T22:22:28.942Z,19.00
2018-08-24T22:24:57.239Z,19.00
2018-08-24T22:27:25.551Z,19.10
2018-08-24T22:29:53.857Z,19.00
2018-08-24T22:32:22.135Z,18.90
2018-08-24T22:34:50.367Z,18.90
2018-08-24T22:37:18.680Z,19.00
2018-08-24T22:39:46.921Z,19.00
2018-08-24T22:42:15.263Z,18.70
2018-08-24T22:44:43.550Z,18.80
2018-08-24T22:47:12.082Z,18.70
2018-08-24T22:49:40.574Z,18.80
2018-08-24T22:52:08.924Z,18.70
2018-08-24T22:54:37.260Z,18.70
2018-08-24T22:57:05.708Z,18.60
2018-08-24T22:59:34.094Z,18.50
2018-08-24T23:02:02.432Z,18.40
2018-08-24T23:04:30.875Z,18.50
2018-08-24T23:06:59.264Z,18.40
2018-08-24T23:09:27.783Z,18.40
2018-08-24T23:11:56.305Z,18.40
2018-08-24T23:14:24.883Z,18.60
2018-08-24T23:16:53.216Z,18.50
2018-08-24T23:19:21.495Z,18.40
2018-08-24T23:21:49.797Z,18.40
2018-08-24T23:24:18.221Z,18.30
2018-08-24T23:26:46.532Z,18.20
2018-08-24T23:29:15.134Z,18.10
2018-08-24T23:31:43.437Z,18.00
2018-08-24T23:34:11.867Z,18.20
2018-08-24T23:36:40.090Z,18.40
2018-08-24T23:39:09.461Z,18.30
2018-08-24T23:41:37.754Z,18.20
2018-08-24T23:44:06.089Z,18.20
2018-08-24T23:46:34.394Z,18.10
2018-08-24T23:49:02.876Z,18.00
2018-08-24T23:51:31.416Z,17.90
2018-08-24T23:53:59.683Z,18.00
2018-08-24T23:56:27.970Z,18.10
2018-08-24T23:58:56.218Z,18.00
